createdAt,value
2022-09-23T00:00:25.377Z,8.23
2022-09-23T00:03:30.024Z,7.72
2022-09-23T00:06:32.800Z,9.48
2022-09-23T00:09:35.397Z,6.83
2022-09-23T00:12:37.842Z,7.75
2022-09-23T00:15:40.477Z,8.38
2022-09-23T00:18:44.162Z,7.43
2022-09-23T00:21:46.596Z,7.07
2022-09-23T00:24:49.405Z,8.67
2022-09-23T00:27:51.949Z,7.90
2022-09-23T00:30:54.724Z,8.10
2022-09-23T00:34:00.428Z,8.57
2022-09-23T00:37:02.982Z,7.18
2022-09-23T00:40:06.073Z,8.97
2022-09-23T00:43:12.869Z,8.63
2022-09-23T00:46:45.056Z,6.75
2022-09-23T00:50:02.125Z,7.57
2022-09-23T00:53:08.089Z,7.78
2022-09-23T00:56:12.459Z,6.73
2022-09-23T00:59:15.050Z,7.15
2022-09-23T01:02:21.153Z,7.35
2022-09-23T01:05:24.233Z,6.85
2022-09-23T01:08:27.831Z,7.13
2022-09-23T01:11:57.550Z,8.73
2022-09-23T01:15:03.504Z,7.53
2022-09-23T01:18:21.356Z,6.93
2022-09-23T01:21:49.053Z,6.53
2022-09-23T01:25:08.878Z,6.32
2022-09-23T01:28:29.711Z,7.17
2022-09-23T01:31:43.274Z,7.22
2022-09-23T01:34:57.636Z,7.20
2022-09-23T01:38:08.961Z,6.22
2022-09-23T01:41:25.075Z,6.72
2022-09-23T01:44:35.018Z,6.13
2022-09-23T01:47:47.225Z,6.18
2022-09-23T01:51:18.928Z,5.93
2022-09-23T01:54:28.638Z,7.13
2022-09-23T01:57:40.635Z,8.40
2022-09-23T02:00:52.386Z,7.73
2022-09-23T02:04:01.148Z,7.13
2022-09-23T02:07:16.465Z,8.10
2022-09-23T02:10:28.442Z,5.70
2022-09-23T02:14:05.950Z,5.85
2022-09-23T02:17:17.330Z,7.27
2022-09-23T02:20:25.062Z,6.07
2022-09-23T02:23:33.139Z,6.15
2022-09-23T02:26:40.487Z,6.55
2022-09-23T02:30:09.024Z,5.82
2022-09-23T02:33:20.464Z,6.97
2022-09-23T02:36:32.388Z,6.10
2022-09-23T02:39:52.323Z,7.03
2022-09-23T02:43:19.942Z,6.13
2022-09-23T02:46:23.464Z,5.70
2022-09-23T02:49:29.492Z,5.50
2022-09-23T02:52:33.010Z,6.68
2022-09-23T02:55:36.007Z,5.57
2022-09-23T02:58:38.644Z,6.35
2022-09-23T03:02:03.664Z,6.00
2022-09-23T03:05:19.137Z,6.67
2022-09-23T03:08:50.859Z,5.88
2022-09-23T03:12:03.581Z,6.32
2022-09-23T03:15:12.375Z,6.00
2022-09-23T03:18:20.833Z,5.97
2022-09-23T03:21:35.648Z,7.13
2022-09-23T03:24:45.377Z,6.35
2022-09-23T03:27:47.959Z,5.72
2022-09-23T03:30:52.683Z,6.40
2022-09-23T03:33:59.048Z,6.30
2022-09-23T03:37:11.775Z,7.33
2022-09-23T03:40:27.141Z,6.05
2022-09-23T03:43:31.167Z,6.15
2022-09-23T03:46:35.451Z,6.30
2022-09-23T03:49:39.915Z,6.28
2022-09-23T03:52:42.530Z,5.30
2022-09-23T03:55:46.705Z,6.28
2022-09-23T03:58:49.272Z,6.25
2022-09-23T04:01:52.409Z,6.10
2022-09-23T04:04:56.165Z,5.45
2022-09-23T04:07:58.905Z,6.10
2022-09-23T04:11:02.475Z,5.32
2022-09-23T04:14:05.706Z,6.30
2022-09-23T04:17:08.855Z,6.03
2022-09-23T04:20:11.363Z,5.88
2022-09-23T04:23:14.084Z,5.87
2022-09-23T04:26:16.652Z,5.68
2022-09-23T04:29:20.019Z,5.13
2022-09-23T04:32:22.597Z,7.45
2022-09-23T04:35:25.100Z,6.40
2022-09-23T04:38:28.063Z,5.00
2022-09-23T04:41:30.629Z,6.78
2022-09-23T04:44:34.949Z,6.13
2022-09-23T04:47:38.774Z,5.82
2022-09-23T04:50:42.263Z,5.22
2022-09-23T04:53:47.347Z,5.20
2022-09-23T04:56:49.828Z,5.80
2022-09-23T04:59:54.975Z,5.72
2022-09-23T05:02:57.509Z,5.95
2022-09-23T05:06:02.177Z,7.03
2022-09-23T05:09:07.589Z,6.10
2022-09-23T05:12:10.224Z,6.97
2022-09-23T05:15:14.916Z,5.82
2022-09-23T05:18:20.749Z,6.25
2022-09-23T05:21:25.663Z,6.10
2022-09-23T05:24:28.335Z,6.17
2022-09-23T05:27:42.359Z,6.40
2022-09-23T05:30:44.854Z,7.40
2022-09-23T05:33:54.012Z,5.45
2022-09-23T05:36:58.800Z,6.35
2022-09-23T05:40:06.236Z,5.93
2022-09-23T05:43:09.951Z,6.88
2022-09-23T05:46:18.022Z,7.53
2022-09-23T05:49:48.638Z,6.03
2022-09-23T05:52:54.007Z,6.40
2022-09-23T05:55:57.908Z,8.43
2022-09-23T05:59:10.004Z,7.70
2022-09-23T06:02:14.798Z,7.55
2022-09-23T06:05:17.622Z,7.25
2022-09-23T06:08:20.451Z,9.32
2022-09-23T06:11:23.246Z,9.33
2022-09-23T06:14:25.757Z,11.20
2022-09-23T06:17:28.198Z,9.32
2022-09-23T06:20:35.586Z,8.88
2022-09-23T06:23:44.517Z,6.93
2022-09-23T06:26:47.980Z,10.23
2022-09-23T06:29:52.274Z,9.20
2022-09-23T06:32:57.293Z,10.95
2022-09-23T06:36:01.879Z,9.52
2022-09-23T06:39:04.661Z,10.80
2022-09-23T06:42:07.828Z,10.90
2022-09-23T06:45:13.203Z,12.60
2022-09-23T06:48:16.252Z,9.07
2022-09-23T06:51:20.452Z,8.95
2022-09-23T06:54:23.163Z,11.57
2022-09-23T06:57:29.743Z,9.30
2022-09-23T07:00:32.365Z,8.38
2022-09-23T07:03:36.345Z,9.23
2022-09-23T07:06:39.247Z,10.63
2022-09-23T07:09:41.942Z,8.10
2022-09-23T07:12:44.586Z,10.77
2022-09-23T07:15:57.203Z,9.57
2022-09-23T07:19:00.048Z,11.80
2022-09-23T07:22:03.509Z,9.50
2022-09-23T07:25:06.521Z,11.63
2022-09-23T07:28:09.207Z,9.07
2022-09-23T07:31:24.015Z,11.77
2022-09-23T07:34:31.315Z,8.15
2022-09-23T07:37:34.340Z,10.23
2022-09-23T07:40:40.177Z,11.00
2022-09-23T07:43:44.365Z,12.97
2022-09-23T07:46:49.797Z,7.82
2022-09-23T07:49:54.284Z,9.75
2022-09-23T07:52:56.995Z,9.88
2022-09-23T07:55:59.899Z,8.60
2022-09-23T07:59:04.742Z,9.50
2022-09-23T08:02:10.371Z,9.90
2022-09-23T08:05:12.932Z,9.00
2022-09-23T08:08:15.897Z,10.65
2022-09-23T08:11:19.057Z,11.50
2022-09-23T08:14:23.187Z,8.73
2022-09-23T08:17:26.006Z,13.68
2022-09-23T08:20:47.422Z,15.40
2022-09-23T08:23:51.894Z,11.07
2022-09-23T08:26:55.106Z,9.32
2022-09-23T08:29:57.948Z,10.90
2022-09-23T08:33:00.848Z,11.43
2022-09-23T08:36:04.271Z,9.77
2022-09-23T08:39:07.020Z,8.65
2022-09-23T08:42:31.287Z,8.90
2022-09-23T08:46:04.527Z,10.07
2022-09-23T08:49:12.472Z,10.25
2022-09-23T08:52:30.008Z,10.63
2022-09-23T08:55:51.040Z,8.95
2022-09-23T08:59:15.045Z,7.75
2022-09-23T09:02:23.155Z,14.57
2022-09-23T09:05:27.756Z,9.30
2022-09-23T09:08:36.607Z,9.75
2022-09-23T09:11:48.550Z,10.40
2022-09-23T09:15:28.130Z,10.63
2022-09-23T09:18:34.355Z,14.63
2022-09-23T09:21:42.626Z,14.77
2022-09-23T09:24:48.779Z,10.98
2022-09-23T09:27:52.791Z,11.00
2022-09-23T09:31:00.140Z,10.77
2022-09-23T09:34:05.699Z,11.60
2022-09-23T09:37:14.796Z,12.32
2022-09-23T09:40:17.785Z,9.88
2022-09-23T09:43:23.419Z,8.90
2022-09-23T09:46:25.977Z,11.10
2022-09-23T09:49:41.314Z,8.03
2022-09-23T09:52:43.896Z,11.27
2022-09-23T09:55:59.795Z,13.70
2022-09-23T09:59:12.442Z,10.18
2022-09-23T10:02:39.748Z,9.90
2022-09-23T10:05:45.952Z,12.63
2022-09-23T10:09:10.867Z,14.45
2022-09-23T10:12:19.704Z,11.82
2022-09-23T10:15:35.037Z,12.40
2022-09-23T10:18:50.314Z,10.15
2022-09-23T10:22:00.364Z,12.83
2022-09-23T10:25:09.987Z,12.23
2022-09-23T10:28:32.199Z,9.65
2022-09-23T10:31:36.408Z,13.90
2022-09-23T10:34:43.720Z,14.18
2022-09-23T10:37:57.813Z,13.53
2022-09-23T10:41:21.136Z,13.10
2022-09-23T10:44:54.368Z,11.57
2022-09-23T10:47:59.719Z,10.05
2022-09-23T10:51:22.682Z,12.75
2022-09-23T10:54:28.000Z,11.23
2022-09-23T10:57:45.951Z,11.45
2022-09-23T11:01:20.601Z,10.82
2022-09-23T11:04:42.008Z,9.88
2022-09-23T11:08:36.506Z,11.43
2022-09-23T11:11:58.802Z,10.77
2022-09-23T11:15:01.254Z,13.23
2022-09-23T11:18:18.066Z,11.10
2022-09-23T11:21:27.816Z,9.35
2022-09-23T11:24:52.253Z,13.93
2022-09-23T11:28:07.103Z,9.03
2022-09-23T11:31:31.551Z,12.73
2022-09-23T11:34:40.179Z,11.52
2022-09-23T11:37:46.687Z,11.57
2022-09-23T11:40:55.464Z,10.15
2022-09-23T11:44:14.862Z,13.20
2022-09-23T11:47:30.399Z,10.23
2022-09-23T11:51:03.858Z,9.63
2022-09-23T11:54:11.556Z,12.07
2022-09-23T11:57:48.280Z,12.43
2022-09-23T12:01:01.109Z,9.47
2022-09-23T12:04:19.999Z,11.60
2022-09-23T12:07:39.966Z,10.48
2022-09-23T12:11:01.694Z,9.68
2022-09-23T12:14:22.660Z,12.57
2022-09-23T12:17:35.243Z,10.70
2022-09-23T12:20:56.614Z,9.15
2022-09-23T12:24:05.068Z,11.40
2022-09-23T12:27:12.244Z,10.75
2022-09-23T12:30:28.685Z,11.23
2022-09-23T12:33:36.952Z,13.07
2022-09-23T12:36:39.760Z,11.10
2022-09-23T12:39:47.097Z,12.52
2022-09-23T12:42:51.115Z,13.65
2022-09-23T12:45:54.023Z,11.95
2022-09-23T12:49:00.524Z,10.97
2022-09-23T12:52:12.188Z,11.15
2022-09-23T12:55:22.099Z,9.93
2022-09-23T12:58:42.887Z,17.77
2022-09-23T13:01:45.549Z,11.25
2022-09-23T13:05:27.005Z,17.87
2022-09-23T13:08:29.748Z,10.98
2022-09-23T13:11:33.313Z,15.30
2022-09-23T13:14:45.546Z,15.35
2022-09-23T13:17:48.241Z,18.35
2022-09-23T13:20:52.879Z,19.70
2022-09-23T13:24:13.771Z,15.80
2022-09-23T13:27:20.651Z,20.92
2022-09-23T13:30:26.840Z,19.60
2022-09-23T13:33:50.546Z,16.95
2022-09-23T13:36:53.705Z,16.07
2022-09-23T13:40:17.588Z,17.92
2022-09-23T13:43:26.889Z,16.95
2022-09-23T13:46:34.354Z,18.52
2022-09-23T13:49:37.255Z,17.95
2022-09-23T13:52:39.742Z,15.77
2022-09-23T13:55:42.409Z,15.32
2022-09-23T13:58:44.885Z,24.77
2022-09-23T14:01:47.460Z,20.30
2022-09-23T14:04:50.875Z,14.48
2022-09-23T14:07:55.092Z,12.33
2022-09-23T14:10:59.499Z,16.27
2022-09-23T14:14:07.750Z,12.40
2022-09-23T14:17:17.964Z,16.38
2022-09-23T14:20:22.211Z,18.67
2022-09-23T14:23:24.730Z,12.27
2022-09-23T14:26:27.329Z,13.55
2022-09-23T14:29:33.076Z,13.57
2022-09-23T14:32:35.743Z,19.60
2022-09-23T14:35:43.027Z,17.02
2022-09-23T14:38:51.547Z,18.10
2022-09-23T14:41:55.578Z,15.10
2022-09-23T14:44:58.648Z,12.00
2022-09-23T14:48:09.676Z,16.23
2022-09-23T14:51:16.963Z,14.55
2022-09-23T14:54:36.067Z,16.43
2022-09-23T14:57:44.151Z,13.45
2022-09-23T15:01:00.561Z,17.30
2022-09-23T15:04:20.145Z,16.70
2022-09-23T15:07:23.896Z,11.70
2022-09-23T15:10:30.296Z,24.13
2022-09-23T15:13:39.216Z,10.85
2022-09-23T15:16:41.890Z,14.02
2022-09-23T15:19:46.697Z,15.25
2022-09-23T15:22:53.737Z,15.10
2022-09-23T15:25:56.221Z,14.97
2022-09-23T15:28:59.061Z,15.13
2022-09-23T15:32:02.018Z,14.88
2022-09-23T15:35:06.025Z,11.90
2022-09-23T15:38:09.758Z,12.02
2022-09-23T15:41:14.313Z,15.63
2022-09-23T15:44:29.485Z,14.40
2022-09-23T15:47:32.062Z,12.90
2022-09-23T15:50:35.931Z,13.32
2022-09-23T15:53:38.420Z,13.63
2022-09-23T15:56:40.915Z,12.70
2022-09-23T15:59:44.112Z,11.43
2022-09-23T16:02:48.834Z,14.02
2022-09-23T16:05:52.338Z,16.08
2022-09-23T16:08:55.580Z,14.52
2022-09-23T16:11:58.060Z,14.37
2022-09-23T16:15:00.850Z,12.68
2022-09-23T16:18:03.836Z,11.00
2022-09-23T16:21:07.757Z,11.35
2022-09-23T16:24:16.930Z,13.07
2022-09-23T16:27:20.153Z,12.47
2022-09-23T16:30:23.685Z,10.73
2022-09-23T16:33:27.741Z,11.25
2022-09-23T16:36:32.567Z,10.15
2022-09-23T16:39:35.058Z,10.88
2022-09-23T16:42:38.424Z,11.83
2022-09-23T16:45:41.226Z,13.23
2022-09-23T16:48:49.740Z,14.80
2022-09-23T16:51:56.322Z,12.57
2022-09-23T16:54:59.044Z,13.75
2022-09-23T16:58:02.464Z,10.93
2022-09-23T17:01:25.241Z,11.23
2022-09-23T17:04:27.988Z,12.02
2022-09-23T17:07:32.242Z,11.35
2022-09-23T17:10:36.007Z,10.95
2022-09-23T17:13:41.148Z,11.93
2022-09-23T17:16:44.110Z,12.20
2022-09-23T17:19:48.391Z,8.98
2022-09-23T17:22:52.992Z,9.48
2022-09-23T17:25:58.314Z,11.65
2022-09-23T17:29:02.206Z,12.83
2022-09-23T17:32:05.741Z,10.68
2022-09-23T17:35:09.956Z,10.90
2022-09-23T17:38:13.475Z,10.60
2022-09-23T17:41:17.333Z,11.07
2022-09-23T17:44:19.872Z,12.37
2022-09-23T17:47:25.908Z,8.05
2022-09-23T17:50:30.695Z,13.60
2022-09-23T17:53:38.842Z,11.52
2022-09-23T17:56:42.704Z,10.85
2022-09-23T17:59:46.425Z,9.50
2022-09-23T18:02:52.279Z,9.05
2022-09-23T18:05:55.751Z,10.70
2022-09-23T18:09:02.055Z,12.82
2022-09-23T18:12:04.693Z,10.18
2022-09-23T18:15:07.472Z,11.37
2022-09-23T18:18:10.117Z,9.55
2022-09-23T18:21:12.896Z,11.10
2022-09-23T18:24:32.412Z,9.18
2022-09-23T18:27:36.128Z,9.45
2022-09-23T18:30:40.230Z,10.43
2022-09-23T18:33:43.269Z,10.25
2022-09-23T18:36:46.370Z,10.57
2022-09-23T18:39:50.211Z,10.45
2022-09-23T18:42:52.754Z,9.65
2022-09-23T18:45:57.042Z,11.03
2022-09-23T18:49:19.491Z,10.13
2022-09-23T18:52:22.013Z,11.63
2022-09-23T18:55:25.986Z,12.43
2022-09-23T18:58:28.514Z,11.82
2022-09-23T19:01:31.201Z,8.80
2022-09-23T19:04:33.763Z,12.15
2022-09-23T19:07:36.267Z,10.40
2022-09-23T19:10:39.442Z,7.85
2022-09-23T19:13:42.059Z,12.60
2022-09-23T19:16:44.623Z,8.03
2022-09-23T19:19:47.087Z,11.43
2022-09-23T19:22:49.696Z,13.02
2022-09-23T19:25:52.271Z,11.98
2022-09-23T19:28:57.166Z,11.80
2022-09-23T19:31:59.847Z,11.97
2022-09-23T19:35:02.442Z,11.88
2022-09-23T19:38:05.043Z,13.13
2022-09-23T19:41:09.149Z,11.25
2022-09-23T19:44:11.924Z,11.35
2022-09-23T19:47:17.997Z,10.80
2022-09-23T19:50:21.847Z,15.02
2022-09-23T19:53:27.971Z,10.43
2022-09-23T19:56:32.038Z,9.57
2022-09-23T19:59:34.766Z,10.02
2022-09-23T20:02:38.203Z,9.87
2022-09-23T20:05:40.965Z,10.13
2022-09-23T20:08:44.419Z,11.65
2022-09-23T20:11:47.278Z,9.68
2022-09-23T20:14:51.882Z,10.10
2022-09-23T20:17:54.714Z,9.17
2022-09-23T20:20:57.481Z,11.32
2022-09-23T20:24:02.196Z,9.27
2022-09-23T20:27:10.424Z,11.43
2022-09-23T20:30:13.067Z,12.18
2022-09-23T20:33:15.727Z,10.90
2022-09-23T20:36:19.169Z,9.48
2022-09-23T20:39:22.167Z,11.00
2022-09-23T20:42:24.776Z,8.65
2022-09-23T20:45:27.295Z,9.20
2022-09-23T20:48:31.014Z,9.97
2022-09-23T20:51:33.710Z,9.70
2022-09-23T20:54:38.890Z,12.00
2022-09-23T20:57:41.642Z,9.02
2022-09-23T21:00:47.248Z,10.82
2022-09-23T21:03:51.439Z,11.03
2022-09-23T21:06:57.526Z,10.10
2022-09-23T21:10:02.640Z,11.57
2022-09-23T21:13:07.005Z,10.05
2022-09-23T21:16:10.904Z,11.13
2022-09-23T21:19:13.334Z,12.20
2022-09-23T21:22:15.930Z,9.05
2022-09-23T21:25:28.080Z,10.15
2022-09-23T21:28:35.921Z,8.35
2022-09-23T21:31:38.893Z,9.32
2022-09-23T21:34:41.514Z,10.27
2022-09-23T21:37:44.018Z,7.93
2022-09-23T21:40:58.371Z,9.55
2022-09-23T21:44:04.622Z,12.98
2022-09-23T21:47:07.322Z,11.20
2022-09-23T21:50:10.027Z,11.33
2022-09-23T21:53:12.994Z,9.95
2022-09-23T21:56:21.366Z,8.98
2022-09-23T21:59:23.923Z,9.13
2022-09-23T22:02:27.592Z,8.02
2022-09-23T22:05:30.040Z,9.73
2022-09-23T22:08:38.247Z,10.30
2022-09-23T22:12:00.366Z,9.45
2022-09-23T22:15:02.985Z,11.27
2022-09-23T22:18:06.039Z,8.05
2022-09-23T22:21:08.663Z,9.67
2022-09-23T22:24:12.193Z,9.15
2022-09-23T22:27:18.361Z,7.22
2022-09-23T22:30:39.458Z,8.73
2022-09-23T22:33:42.248Z,9.10
2022-09-23T22:36:44.698Z,8.03
2022-09-23T22:39:47.406Z,8.77
2022-09-23T22:42:50.161Z,7.63
2022-09-23T22:45:52.851Z,8.75
2022-09-23T22:48:55.893Z,9.13
2022-09-23T22:51:59.561Z,9.63
2022-09-23T22:55:03.637Z,9.40
2022-09-23T22:58:27.578Z,7.22
2022-09-23T23:01:30.585Z,8.38
2022-09-23T23:04:33.949Z,11.18
2022-09-23T23:07:36.656Z,7.90
2022-09-23T23:10:39.440Z,7.50
2022-09-23T23:13:42.569Z,8.55
2022-09-23T23:16:46.318Z,7.53
2022-09-23T23:19:50.677Z,7.90
2022-09-23T23:22:53.269Z,8.63
2022-09-23T23:25:56.083Z,9.75
2022-09-23T23:28:59.423Z,7.40
2022-09-23T23:32:02.192Z,6.78
2022-09-23T23:35:05.321Z,9.70
2022-09-23T23:38:08.020Z,7.10
2022-09-23T23:41:16.549Z,8.10
2022-09-23T23:44:19.071Z,7.88
2022-09-23T23:47:21.778Z,7.82
2022-09-23T23:50:24.221Z,7.53
2022-09-23T23:53:30.630Z,8.53
2022-09-23T23:56:33.235Z,8.27
2022-09-23T23:59:35.799Z,7.30
